createdAt,value
2022-08-23T00:00:33.589Z,41.91
2022-08-23T00:05:38.428Z,41.54
2022-08-23T00:10:41.867Z,42.27
2022-08-23T00:15:46.844Z,43.04
2022-08-23T00:20:50.203Z,42.97
2022-08-23T00:25:53.572Z,42.94
2022-08-23T00:30:58.553Z,42.71
2022-08-23T00:36:02.040Z,43.51
2022-08-23T00:41:06.095Z,43.62
2022-08-23T00:46:32.983Z,42.94
2022-08-23T00:51:52.860Z,43.77
2022-08-23T00:56:58.723Z,43.39
2022-08-23T01:02:04.287Z,43.28
2022-08-23T01:07:13.886Z,43.90
2022-08-23T01:12:24.176Z,43.94
2022-08-23T01:17:44.288Z,44.46
2022-08-23T01:22:55.084Z,44.45
2022-08-23T01:28:00.810Z,44.57
2022-08-23T01:33:08.345Z,44.60
2022-08-23T01:38:13.794Z,45.04
2022-08-23T01:43:21.476Z,45.25
2022-08-23T01:48:25.134Z,45.49
2022-08-23T01:53:28.573Z,45.83
2022-08-23T01:58:34.605Z,46.23
2022-08-23T02:03:38.196Z,47.09
2022-08-23T02:08:59.230Z,47.85
2022-08-23T02:14:17.364Z,47.15
2022-08-23T02:19:21.825Z,48.63
2022-08-23T02:24:26.771Z,48.72
2022-08-23T02:29:31.961Z,48.36
2022-08-23T02:34:36.713Z,48.80
2022-08-23T02:39:40.390Z,48.41
2022-08-23T02:44:45.559Z,49.26
2022-08-23T02:49:49.039Z,49.60
2022-08-23T02:54:53.219Z,49.09
2022-08-23T03:00:03.345Z,49.42
2022-08-23T03:05:08.430Z,48.59
2022-08-23T03:10:12.745Z,48.95
2022-08-23T03:15:17.474Z,47.88
2022-08-23T03:20:21.222Z,49.27
2022-08-23T03:25:25.253Z,48.87
2022-08-23T03:30:30.056Z,47.96
2022-08-23T03:35:33.599Z,47.33
2022-08-23T03:40:37.286Z,46.95
2022-08-23T03:45:42.006Z,46.11
2022-08-23T03:50:45.587Z,45.57
2022-08-23T03:55:49.575Z,44.93
2022-08-23T04:00:54.318Z,44.73
2022-08-23T04:05:57.788Z,44.14
2022-08-23T04:11:01.150Z,43.34
2022-08-23T04:16:06.921Z,42.88
2022-08-23T04:21:15.886Z,42.20
2022-08-23T04:26:19.690Z,41.36
2022-08-23T04:31:26.622Z,40.66
2022-08-23T04:36:36.069Z,39.96
2022-08-23T04:41:56.905Z,38.33
2022-08-23T04:47:01.675Z,35.43
2022-08-23T04:52:05.478Z,34.54
2022-08-23T04:57:08.562Z,34.36
2022-08-23T05:02:13.382Z,34.15
2022-08-23T05:07:16.816Z,33.65
2022-08-23T05:12:20.203Z,32.10
2022-08-23T05:17:28.315Z,30.54
2022-08-23T05:22:35.058Z,31.39
2022-08-23T05:27:38.825Z,29.30
2022-08-23T05:32:43.820Z,26.15
2022-08-23T05:37:47.230Z,24.97
2022-08-23T05:42:50.661Z,27.04
2022-08-23T05:47:55.838Z,26.81
2022-08-23T05:52:59.332Z,24.99
2022-08-23T05:58:03.526Z,23.89
2022-08-23T06:03:08.509Z,21.06
2022-08-23T06:08:11.908Z,20.71
2022-08-23T06:13:15.279Z,21.72
2022-08-23T06:18:21.079Z,20.06
2022-08-23T06:23:24.475Z,20.20
2022-08-23T06:28:28.002Z,21.02
2022-08-23T06:33:33.380Z,20.43
2022-08-23T06:38:37.385Z,18.62
2022-08-23T06:43:43.317Z,18.67
2022-08-23T06:48:48.826Z,18.58
2022-08-23T06:53:55.206Z,16.72
2022-08-23T06:58:59.306Z,17.96
2022-08-23T07:04:06.998Z,18.19
2022-08-23T07:09:10.382Z,17.86
2022-08-23T07:14:16.575Z,17.62
2022-08-23T07:19:29.054Z,17.87
2022-08-23T07:24:33.915Z,18.08
2022-08-23T07:29:40.388Z,16.06
2022-08-23T07:34:45.273Z,15.35
2022-08-23T07:39:49.535Z,13.23
2022-08-23T07:44:55.512Z,14.90
2022-08-23T07:50:01.874Z,15.75
2022-08-23T07:55:07.499Z,16.28
2022-08-23T08:00:11.595Z,16.08
2022-08-23T08:05:19.678Z,16.04
2022-08-23T08:10:25.268Z,16.08
2022-08-23T08:15:28.747Z,16.64
2022-08-23T08:20:35.910Z,17.33
2022-08-23T08:25:39.572Z,17.30
2022-08-23T08:30:43.031Z,17.73
2022-08-23T08:35:59.322Z,17.90
2022-08-23T08:41:13.612Z,18.89
2022-08-23T08:46:26.060Z,20.57
2022-08-23T08:51:43.130Z,20.80
2022-08-23T08:56:50.814Z,21.50
2022-08-23T09:01:54.757Z,21.83
2022-08-23T09:07:11.566Z,21.99
2022-08-23T09:12:26.552Z,22.93
2022-08-23T09:17:37.573Z,23.81
2022-08-23T09:22:45.950Z,23.82
2022-08-23T09:27:49.403Z,24.04
2022-08-23T09:32:52.799Z,23.78
2022-08-23T09:38:01.533Z,23.86
2022-08-23T09:43:17.924Z,24.27
2022-08-23T09:48:34.817Z,24.67
2022-08-23T09:53:41.391Z,24.55
2022-08-23T09:58:47.413Z,24.06
2022-08-23T10:04:10.702Z,23.84
2022-08-23T10:09:27.809Z,24.75
2022-08-23T10:14:33.990Z,24.45
2022-08-23T10:19:48.471Z,24.14
2022-08-23T10:25:00.792Z,23.96
2022-08-23T10:30:08.822Z,24.13
2022-08-23T10:35:33.374Z,24.88
2022-08-23T10:40:47.394Z,24.49
2022-08-23T10:45:50.942Z,24.33
2022-08-23T10:50:57.742Z,23.84
2022-08-23T10:56:06.947Z,24.33
2022-08-23T11:01:14.350Z,24.45
2022-08-23T11:06:44.879Z,24.90
2022-08-23T11:12:07.079Z,25.31
2022-08-23T11:17:31.158Z,25.09
2022-08-23T11:22:55.735Z,25.02
2022-08-23T11:28:39.166Z,25.67
2022-08-23T11:33:46.674Z,25.08
2022-08-23T11:39:13.024Z,25.08
2022-08-23T11:44:34.661Z,24.67
2022-08-23T11:50:07.862Z,24.43
2022-08-23T11:55:28.399Z,23.50
2022-08-23T12:00:55.116Z,22.95
2022-08-23T12:06:32.528Z,22.82
2022-08-23T12:12:15.786Z,22.19
2022-08-23T12:18:11.731Z,22.61
2022-08-23T12:23:20.552Z,22.20
2022-08-23T12:28:38.204Z,23.18
2022-08-23T12:33:53.686Z,24.09
2022-08-23T12:39:05.280Z,24.35
2022-08-23T12:44:10.775Z,24.13
2022-08-23T12:49:28.126Z,23.38
2022-08-23T12:54:38.394Z,23.92
2022-08-23T12:59:47.779Z,23.37
2022-08-23T13:04:53.824Z,23.35
2022-08-23T13:09:57.928Z,22.40
2022-08-23T13:15:02.908Z,22.22
2022-08-23T13:20:21.899Z,22.61
2022-08-23T13:25:31.549Z,22.83
2022-08-23T13:30:38.393Z,23.10
2022-08-23T13:35:47.009Z,23.01
2022-08-23T13:40:57.452Z,22.99
2022-08-23T13:46:11.558Z,22.83
2022-08-23T13:51:32.426Z,22.83
2022-08-23T13:56:38.309Z,22.79
2022-08-23T14:01:41.751Z,22.68
2022-08-23T14:06:48.897Z,23.17
2022-08-23T14:11:56.676Z,22.65
2022-08-23T14:17:02.867Z,23.44
2022-08-23T14:22:08.000Z,23.55
2022-08-23T14:27:12.374Z,23.79
2022-08-23T14:32:15.875Z,24.13
2022-08-23T14:38:00.628Z,24.58
2022-08-23T14:42:45.180Z,24.73
2022-08-23T14:47:48.801Z,24.46
2022-08-23T14:52:53.815Z,25.41
2022-08-23T14:57:57.232Z,25.42
2022-08-23T15:03:02.685Z,25.85
2022-08-23T15:08:10.008Z,25.87
2022-08-23T15:13:21.783Z,26.02
2022-08-23T15:18:31.903Z,26.06
2022-08-23T15:23:36.828Z,25.88
2022-08-23T15:28:41.399Z,26.35
2022-08-23T15:33:45.104Z,27.08
2022-08-23T15:38:51.930Z,27.03
2022-08-23T15:43:55.742Z,27.57
2022-08-23T15:49:04.558Z,27.61
2022-08-23T15:54:10.378Z,27.38
2022-08-23T15:59:15.556Z,27.19
2022-08-23T16:04:19.316Z,28.07
2022-08-23T16:09:26.622Z,28.81
2022-08-23T16:14:31.267Z,29.11
2022-08-23T16:19:34.706Z,30.35
2022-08-23T16:24:39.575Z,31.19
2022-08-23T16:29:43.082Z,31.25
2022-08-23T16:34:46.608Z,31.33
2022-08-23T16:39:52.305Z,31.31
2022-08-23T16:44:55.923Z,31.08
2022-08-23T16:49:59.424Z,30.70
2022-08-23T16:55:06.191Z,34.41
2022-08-23T17:00:11.944Z,35.72
2022-08-23T17:05:19.192Z,35.39
2022-08-23T17:10:24.748Z,34.78
2022-08-23T17:15:31.644Z,35.14
2022-08-23T17:20:38.454Z,37.38
2022-08-23T17:25:47.772Z,37.83
2022-08-23T17:30:51.588Z,36.02
2022-08-23T17:35:55.122Z,34.95
2022-08-23T17:41:00.066Z,34.33
2022-08-23T17:46:03.916Z,34.01
2022-08-23T17:51:08.085Z,34.15
2022-08-23T17:56:12.965Z,33.56
2022-08-23T18:01:16.461Z,34.59
2022-08-23T18:06:19.722Z,34.39
2022-08-23T18:11:25.443Z,36.52
2022-08-23T18:16:35.046Z,38.03
2022-08-23T18:21:40.639Z,40.63
2022-08-23T18:27:03.808Z,38.49
2022-08-23T18:32:09.351Z,37.15
2022-08-23T18:37:17.110Z,36.15
2022-08-23T18:42:22.233Z,36.40
2022-08-23T18:47:26.599Z,39.16
2022-08-23T18:52:31.139Z,41.81
2022-08-23T18:57:36.057Z,43.28
2022-08-23T19:02:39.931Z,43.57
2022-08-23T19:07:43.439Z,42.44
2022-08-23T19:13:02.796Z,44.50
2022-08-23T19:18:06.715Z,44.66
2022-08-23T19:23:10.211Z,45.57
2022-08-23T19:28:19.732Z,46.68
2022-08-23T19:33:23.330Z,46.19
2022-08-23T19:38:28.743Z,46.35
2022-08-23T19:43:33.809Z,47.12
2022-08-23T19:48:37.991Z,47.45
2022-08-23T19:53:41.847Z,47.69
2022-08-23T19:58:48.126Z,48.00
2022-08-23T20:03:51.524Z,49.03
2022-08-23T20:08:55.883Z,48.51
2022-08-23T20:14:01.394Z,49.83
2022-08-23T20:19:05.923Z,49.78
2022-08-23T20:24:11.542Z,49.66
2022-08-23T20:29:18.249Z,49.90
2022-08-23T20:34:22.293Z,50.40
2022-08-23T20:39:30.325Z,50.97
2022-08-23T20:44:35.282Z,51.14
2022-08-23T20:49:38.805Z,51.77
2022-08-23T20:54:42.316Z,52.10
2022-08-23T20:59:47.405Z,52.31
2022-08-23T21:04:51.285Z,52.76
2022-08-23T21:09:54.734Z,52.64
2022-08-23T21:14:59.803Z,52.80
2022-08-23T21:20:04.693Z,52.91
2022-08-23T21:25:11.755Z,53.00
2022-08-23T21:30:16.960Z,52.93
2022-08-23T21:35:20.648Z,53.01
2022-08-23T21:40:24.821Z,52.66
2022-08-23T21:45:29.551Z,52.98
2022-08-23T21:50:34.641Z,52.88
2022-08-23T21:55:39.405Z,53.10
2022-08-23T22:00:44.945Z,53.55
2022-08-23T22:05:48.709Z,53.69
2022-08-23T22:10:57.309Z,53.60
2022-08-23T22:16:03.056Z,53.63
2022-08-23T22:21:07.190Z,53.75
2022-08-23T22:26:10.941Z,53.77
2022-08-23T22:31:16.639Z,53.88
2022-08-23T22:36:23.456Z,54.27
2022-08-23T22:41:28.679Z,54.28
2022-08-23T22:46:35.409Z,54.58
2022-08-23T22:51:38.962Z,54.46
2022-08-23T22:56:45.189Z,54.89
2022-08-23T23:01:53.217Z,55.16
2022-08-23T23:06:58.765Z,55.01
2022-08-23T23:12:02.284Z,55.51
2022-08-23T23:17:07.206Z,55.59
2022-08-23T23:22:10.930Z,55.76
2022-08-23T23:27:14.406Z,55.53
2022-08-23T23:32:21.143Z,55.41
2022-08-23T23:37:24.588Z,55.81
2022-08-23T23:42:28.989Z,56.61
2022-08-23T23:47:34.352Z,56.57
2022-08-23T23:52:38.489Z,56.94
2022-08-23T23:57:42.095Z,56.93
